Time;durP1;ratioP1;P1;durP2;ratioP2;P2;SDS_P1;SDS_P2;PMS_P1;PMS_P2;Temp;Humidity;BMP_temperature;BMP_pressure;BME280_temperature;BME280_humidity;BME280_pressure;Samples;Min_cycle;Max_cycle;Signal;HPM_P1;HPM_P2
2023/02/09 00:00:05;;;;;;;1.65;1.33;;;;;;;5.40;90.36;102101.03;5091168;28;20123;-43
2023/02/09 00:02:32;;;;;;;0.85;0.80;;;;;;;5.34;90.13;102113.13;5104597;28;20079;-43
2023/02/09 00:04:59;;;;;;;0.85;0.50;;;;;;;5.32;90.08;102109.81;5090806;28;20476;-44
2023/02/09 00:07:26;;;;;;;5.70;1.98;;;;;;;5.28;89.93;102113.41;5091455;28;20076;-43
2023/02/09 00:09:53;;;;;;;3.25;0.85;;;;;;;5.25;89.81;102120.28;5088908;28;20524;-43
2023/02/09 00:15:06;;;;;;;1.73;0.95;;;;;;;5.15;89.74;102124.94;5088100;28;20126;-44
2023/02/09 00:17:34;;;;;;;0.80;0.77;;;;;;;5.10;90.02;102116.72;5090977;28;20075;-43
2023/02/09 00:20:04;;;;;;;4.78;1.52;;;;;;;5.06;89.82;102121.91;5091719;28;20115;-45
2023/02/09 00:22:31;;;;;;;3.10;0.70;;;;;;;5.03;89.99;102133.44;5091304;28;20078;-43
2023/02/09 00:24:57;;;;;;;3.25;1.10;;;;;;;4.98;89.82;102141.69;5090618;28;20101;-43
2023/02/09 00:27:24;;;;;;;4.45;2.00;;;;;;;4.97;90.13;102142.78;5090691;28;20461;-44
2023/02/09 00:29:51;;;;;;;2.90;1.13;;;;;;;4.90;89.68;102156.78;5090473;28;20059;-42
2023/02/09 00:32:18;;;;;;;2.08;1.20;;;;;;;4.86;90.08;102154.84;5088584;28;20079;-43
2023/02/09 00:34:45;;;;;;;1.55;1.20;;;;;;;4.80;89.62;102155.94;5103734;28;20048;-43
2023/02/09 00:37:12;;;;;;;3.90;1.25;;;;;;;4.73;89.69;102163.63;5090748;28;20247;-43
2023/02/09 00:39:38;;;;;;;2.80;1.00;;;;;;;4.71;89.68;102154.84;5090717;28;20859;-47
2023/02/09 00:42:05;;;;;;;3.38;1.50;;;;;;;4.70;89.77;102161.41;5090981;28;20146;-44
2023/02/09 00:44:38;;;;;;;3.30;1.27;;;;;;;4.67;89.75;102173.75;5072762;28;20439;-43
2023/02/09 00:47:07;;;;;;;3.40;1.23;;;;;;;4.65;90.03;102164.16;5090910;28;20086;-45
2023/02/09 00:49:34;;;;;;;3.38;1.13;;;;;;;4.61;89.97;102180.31;5090780;28;20056;-44
2023/02/09 00:52:01;;;;;;;4.20;1.83;;;;;;;4.61;90.00;102174.00;5091445;28;20565;-43
2023/02/09 00:54:28;;;;;;;5.07;1.55;;;;;;;4.56;89.98;102176.72;5090923;28;20508;-43
2023/02/09 00:56:55;;;;;;;2.70;1.10;;;;;;;4.54;90.08;102189.91;5090386;28;20048;-44
2023/02/09 00:59:22;;;;;;;1.35;1.20;;;;;;;4.52;90.12;102190.19;5072818;28;20446;-44
2023/02/09 01:01:48;;;;;;;2.50;1.77;;;;;;;4.48;89.68;102191.78;5090729;28;20056;-43
2023/02/09 01:04:15;;;;;;;3.30;1.25;;;;;;;4.47;89.95;102194.81;5090700;28;20060;-43
2023/02/09 01:06:42;;;;;;;1.20;0.98;;;;;;;4.43;90.15;102199.19;5072405;28;20444;-43
2023/02/09 01:09:09;;;;;;;3.25;1.15;;;;;;;4.40;90.01;102207.94;5091053;28;20086;-43
2023/02/09 01:11:35;;;;;;;1.55;1.20;;;;;;;4.37;89.99;102211.25;5103253;28;20052;-44
2023/02/09 01:14:03;;;;;;;6.00;1.08;;;;;;;4.34;90.37;102220.00;5092607;28;20474;-44
2023/02/09 01:16:30;;;;;;;1.88;1.10;;;;;;;4.30;89.85;102217.78;5092379;28;20090;-43
2023/02/09 01:19:00;;;;;;;4.72;1.23;;;;;;;4.29;90.31;102227.09;5110898;28;20051;-46
2023/02/09 01:21:27;;;;;;;3.95;1.60;;;;;;;4.24;90.18;102224.31;5110390;28;20051;-44
2023/02/09 01:23:54;;;;;;;3.58;1.90;;;;;;;4.22;90.11;102215.56;5110588;28;20495;-43
2023/02/09 01:26:21;;;;;;;4.95;1.70;;;;;;;4.19;89.87;102216.09;5084997;28;20123;-45
2023/02/09 01:28:52;;;;;;;3.70;1.80;;;;;;;4.16;90.15;102194.69;5090085;28;20047;-47
2023/02/09 01:31:28;;;;;;;3.65;1.50;;;;;;;4.13;90.06;102194.41;5089828;28;20135;-43
2023/02/09 01:33:57;;;;;;;5.45;2.00;;;;;;;4.11;89.96;102202.06;5097606;28;20036;-43
2023/02/09 01:36:24;;;;;;;5.95;1.70;;;;;;;4.10;89.85;102206.72;5110259;28;20044;-43
2023/02/09 01:38:55;;;;;;;5.25;1.60;;;;;;;4.06;89.82;102200.13;5109757;28;20501;-47
2023/02/09 01:41:22;;;;;;;6.03;1.80;;;;;;;4.06;90.03;102205.59;5110031;28;20496;-43
2023/02/09 01:43:59;;;;;;;6.47;1.85;;;;;;;4.03;90.12;102222.56;5098905;28;20079;-44
2023/02/09 01:46:28;;;;;;;4.00;1.85;;;;;;;4.05;90.36;102219.59;5089805;28;20474;-43
2023/02/09 01:49:05;;;;;;;3.45;1.77;;;;;;;4.02;90.02;102225.59;5089904;28;20525;-42
2023/02/09 01:51:37;;;;;;;3.65;1.83;;;;;;;3.99;90.10;102216.00;5089592;28;20044;-43
2023/02/09 01:54:08;;;;;;;4.00;1.90;;;;;;;3.96;89.86;102222.00;5089408;28;20134;-43
2023/02/09 01:56:39;;;;;;;4.03;1.90;;;;;;;3.94;90.02;102218.69;5089797;28;20048;-43
2023/02/09 01:59:08;;;;;;;3.38;1.75;;;;;;;3.91;90.07;102230.19;5071868;28;20410;-43
2023/02/09 02:01:36;;;;;;;4.07;1.70;;;;;;;3.89;90.24;102228.81;5086593;28;20052;-48
2023/02/09 02:04:04;;;;;;;3.38;1.48;;;;;;;3.85;89.92;102220.28;5089446;28;20603;-43
2023/02/09 02:06:31;;;;;;;2.42;1.35;;;;;;;3.84;89.97;102231.50;5088882;28;20048;-43
2023/02/09 02:09:10;;;;;;;4.40;2.30;;;;;;;3.80;90.16;102228.47;5088689;28;20509;-48
2023/02/09 02:11:39;;;;;;;2.17;1.60;;;;;;;3.77;90.24;102228.16;5089817;28;20098;-42
2023/02/09 02:14:05;;;;;;;7.53;2.03;;;;;;;3.74;90.28;102235.00;5088500;28;20073;-46
2023/02/09 02:17:00;;;;;;;4.22;1.38;;;;;;;3.70;90.43;102231.16;5070791;28;20101;-44
2023/02/09 02:20:05;;;;;;;3.75;1.63;;;;;;;3.66;90.49;102230.00;5088877;28;20648;-43
2023/02/09 02:22:31;;;;;;;3.05;1.88;;;;;;;3.63;90.29;102228.63;5088575;28;20151;-52
2023/02/09 02:25:35;;;;;;;2.45;1.75;;;;;;;3.59;90.30;102230.25;5088881;28;20501;-45
2023/02/09 02:28:40;;;;;;;3.13;1.83;;;;;;;3.57;90.18;102226.13;5079029;28;20119;-43
2023/02/09 02:31:28;;;;;;;7.13;2.72;;;;;;;3.54;90.56;102223.91;5088536;28;20056;-42
2023/02/09 02:34:19;;;;;;;2.38;1.63;;;;;;;3.49;90.33;102218.38;5093097;28;20051;-43
2023/02/09 02:37:08;;;;;;;5.50;2.83;;;;;;;3.47;90.46;102234.22;5077048;28;20040;-42
2023/02/09 02:39:57;;;;;;;5.18;1.70;;;;;;;3.43;90.70;102233.13;5064843;28;20512;-43
2023/02/09 02:42:48;;;;;;;6.07;1.50;;;;;;;3.42;90.43;102236.94;5088426;28;20497;-43
2023/02/09 02:45:37;;;;;;;4.40;1.92;;;;;;;3.39;90.49;102232.00;5070763;28;20457;-43
2023/02/09 02:48:17;;;;;;;4.38;2.10;;;;;;;3.38;90.67;102241.28;5088333;28;20401;-49
2023/02/09 02:50:53;;;;;;;6.63;1.65;;;;;;;3.33;90.38;102253.03;5088297;28;20060;-43
2023/02/09 02:53:25;;;;;;;3.47;1.45;;;;;;;3.33;90.70;102257.66;5088464;28;20078;-42
2023/02/09 02:55:55;;;;;;;5.03;1.67;;;;;;;3.31;90.77;102259.84;5092252;28;20093;-43
2023/02/09 02:58:24;;;;;;;7.45;1.92;;;;;;;3.29;90.91;102259.25;5092671;28;20516;-43
2023/02/09 03:00:56;;;;;;;3.75;1.52;;;;;;;3.29;91.05;102256.53;5123823;22;20503;-43
2023/02/09 03:03:31;;;;;;;4.35;2.22;;;;;;;3.27;90.71;102255.97;5092351;28;20455;-44
2023/02/09 03:06:02;;;;;;;7.85;2.33;;;;;;;3.26;90.63;102244.19;5092392;28;20147;-43
2023/02/09 03:08:29;;;;;;;6.53;3.75;;;;;;;3.27;90.89;102242.28;5092818;28;20048;-43
2023/02/09 03:10:57;;;;;;;5.90;2.50;;;;;;;3.27;90.98;102250.50;5099813;28;20118;-45
2023/02/09 03:13:52;;;;;;;8.13;2.70;;;;;;;3.25;90.90;102247.19;5096364;28;20137;-42
2023/02/09 03:16:25;;;;;;;7.60;2.53;;;;;;;3.20;90.55;102255.38;5066229;28;20472;-48
2023/02/09 03:19:03;;;;;;;6.32;2.15;;;;;;;3.15;90.94;102263.53;5090993;28;20481;-44
2023/02/09 03:21:45;;;;;;;6.45;2.33;;;;;;;3.10;90.78;102267.03;5091840;28;20122;-42
2023/02/09 03:24:23;;;;;;;11.23;2.30;;;;;;;3.07;90.77;102268.34;5092228;28;20082;-46
2023/02/09 03:26:56;;;;;;;7.20;1.92;;;;;;;3.06;91.05;102280.41;5104857;28;20386;-42
2023/02/09 03:29:26;;;;;;;5.05;1.52;;;;;;;3.05;90.96;102278.75;5091647;28;20055;-48
2023/02/09 03:31:53;;;;;;;5.45;1.80;;;;;;;3.04;91.13;102273.53;5092304;28;20058;-43
2023/02/09 03:34:20;;;;;;;8.68;3.95;;;;;;;3.01;90.78;102269.41;5101809;28;20046;-42
2023/02/09 03:36:53;;;;;;;12.68;2.17;;;;;;;2.99;91.12;102260.63;5073665;28;20094;-42
2023/02/09 03:39:20;;;;;;;7.90;1.80;;;;;;;2.97;90.89;102254.59;5091619;28;20162;-43
2023/02/09 03:41:47;;;;;;;2.70;1.60;;;;;;;2.97;91.23;102253.75;5092191;28;20072;-47
2023/02/09 03:44:26;;;;;;;9.82;2.53;;;;;;;2.93;90.63;102255.38;5091976;28;20139;-43
2023/02/09 03:46:59;;;;;;;3.10;1.77;;;;;;;2.90;90.95;102243.03;5073527;28;20036;-43
2023/02/09 03:49:30;;;;;;;4.13;2.00;;;;;;;2.88;90.73;102247.09;5092063;28;20040;-43
2023/02/09 03:51:59;;;;;;;8.70;3.28;;;;;;;2.85;91.09;102240.25;5073118;28;20044;-51
2023/02/09 03:54:28;;;;;;;3.90;1.83;;;;;;;2.80;90.64;102240.19;5091589;28;20514;-43
2023/02/09 03:56:56;;;;;;;9.63;2.83;;;;;;;2.78;90.99;102245.06;5091377;28;20604;-45
2023/02/09 03:59:26;;;;;;;8.95;1.90;;;;;;;2.75;90.96;102248.34;5091633;28;20070;-42
2023/02/09 04:01:55;;;;;;;4.22;1.95;;;;;;;2.70;90.78;102233.78;5091155;28;20051;-43
2023/02/09 04:04:23;;;;;;;3.28;1.70;;;;;;;2.66;91.08;102235.38;5091706;28;20047;-43
2023/02/09 04:06:50;;;;;;;7.50;2.50;;;;;;;2.62;90.86;102243.25;5090911;28;20496;-45
2023/02/09 04:09:17;;;;;;;5.32;1.65;;;;;;;2.62;91.08;102247.91;5091415;28;20139;-43
2023/02/09 04:11:43;;;;;;;4.55;2.13;;;;;;;2.60;91.09;102245.41;5102970;28;20557;-42
2023/02/09 04:14:10;;;;;;;5.72;2.50;;;;;;;2.57;91.17;102256.84;5091086;28;20041;-50
2023/02/09 04:16:37;;;;;;;4.65;1.55;;;;;;;2.55;91.48;102264.50;5091530;28;20093;-43
2023/02/09 04:19:05;;;;;;;8.25;2.58;;;;;;;2.55;91.07;102258.19;5091250;28;20040;-43
2023/02/09 04:21:32;;;;;;;5.78;3.13;;;;;;;2.54;91.17;102257.41;5090641;28;20434;-43
2023/02/09 04:23:58;;;;;;;9.15;2.05;;;;;;;2.54;90.95;102257.41;5090900;28;20624;-42
2023/02/09 04:26:25;;;;;;;11.35;3.05;;;;;;;2.55;91.28;102252.72;5090629;28;20044;-42
2023/02/09 04:28:53;;;;;;;6.93;2.00;;;;;;;2.53;90.91;102258.47;5091032;28;20097;-46
2023/02/09 04:31:20;;;;;;;8.90;2.00;;;;;;;2.52;91.19;102264.16;5090725;28;20098;-43
2023/02/09 04:33:47;;;;;;;6.00;2.63;;;;;;;2.50;90.98;102264.44;5100982;28;20044;-42
2023/02/09 04:36:14;;;;;;;9.02;3.08;;;;;;;2.47;91.03;102267.66;5094028;28;20111;-43
2023/02/09 04:38:40;;;;;;;8.77;3.05;;;;;;;2.46;90.96;102276.97;5090943;28;20055;-44
2023/02/09 04:41:08;;;;;;;4.80;2.47;;;;;;;2.44;91.06;102279.09;5090301;28;20071;-42
2023/02/09 04:43:35;;;;;;;8.38;2.40;;;;;;;2.41;91.22;102285.06;5090628;28;20059;-42
2023/02/09 04:46:02;;;;;;;5.93;2.03;;;;;;;2.40;91.30;102291.63;5090560;28;20068;-44
2023/02/09 04:48:29;;;;;;;9.35;3.00;;;;;;;2.35;91.22;102297.88;5090673;28;20490;-43
2023/02/09 04:50:56;;;;;;;8.30;2.13;;;;;;;2.36;91.39;102304.16;5090802;28;20048;-48
2023/02/09 04:53:23;;;;;;;9.38;2.35;;;;;;;2.37;91.25;102305.81;5090435;28;20484;-44
2023/02/09 04:55:51;;;;;;;6.53;2.78;;;;;;;2.37;91.17;102308.53;5090157;28;20131;-48
2023/02/09 05:01:08;;;;;;;15.27;3.35;;;;;;;2.35;91.44;102311.53;5090400;28;20126;-43
2023/02/09 05:03:34;;;;;;;8.52;3.72;;;;;;;2.34;91.13;102320.81;5090699;28;20054;-42
2023/02/09 05:06:03;;;;;;;6.28;2.35;;;;;;;2.32;91.19;102316.69;5090262;28;20040;-44
2023/02/09 05:08:31;;;;;;;8.75;2.88;;;;;;;2.32;91.34;102320.25;5072671;28;20079;-42
2023/02/09 05:10:58;;;;;;;3.25;2.13;;;;;;;2.30;91.04;102327.03;5097714;28;20086;-44
2023/02/09 05:13:25;;;;;;;7.78;2.15;;;;;;;2.29;90.94;102331.66;5094375;28;20595;-42
2023/02/09 05:15:52;;;;;;;8.73;3.15;;;;;;;2.30;91.45;102327.84;5090293;28;20047;-45
2023/02/09 05:18:20;;;;;;;10.75;3.83;;;;;;;2.31;91.15;102336.88;5089385;28;20075;-42
2023/02/09 05:20:47;;;;;;;5.90;2.50;;;;;;;2.31;91.31;102342.34;5090161;28;20064;-43
2023/02/09 05:23:15;;;;;;;5.47;2.33;;;;;;;2.28;91.37;102340.09;5090063;28;20045;-43
2023/02/09 05:25:41;;;;;;;6.72;1.95;;;;;;;2.28;91.43;102342.84;5090301;28;20051;-51
2023/02/09 05:28:08;;;;;;;5.35;2.47;;;;;;;2.27;91.03;102333.00;5090108;28;20052;-44
2023/02/09 05:30:36;;;;;;;7.43;2.03;;;;;;;2.27;91.50;102335.72;5089909;28;20501;-43
2023/02/09 05:33:03;;;;;;;10.43;2.47;;;;;;;2.27;91.41;102333.00;5090106;28;20084;-42
2023/02/09 05:35:30;;;;;;;9.32;2.42;;;;;;;2.27;90.99;102333.00;5098376;28;20040;-43
2023/02/09 05:37:57;;;;;;;6.53;2.20;;;;;;;2.24;91.14;102330.78;5089437;28;20135;-42
2023/02/09 05:40:23;;;;;;;8.00;1.90;;;;;;;2.18;91.34;102339.97;5089515;28;20125;-44
2023/02/09 05:42:50;;;;;;;10.65;2.80;;;;;;;2.16;91.09;102336.66;5089989;28;20060;-44
2023/02/09 05:45:17;;;;;;;8.20;2.22;;;;;;;2.16;91.24;102336.66;5089514;28;20090;-43
2023/02/09 05:47:45;;;;;;;10.95;2.25;;;;;;;2.14;90.91;102344.28;5089604;28;20047;-43
2023/02/09 05:50:12;;;;;;;6.07;1.65;;;;;;;2.13;91.04;102345.34;5089177;28;20952;-43
2023/02/09 05:52:39;;;;;;;7.22;2.20;;;;;;;2.11;91.21;102350.25;5089543;28;20044;-43
2023/02/09 05:55:06;;;;;;;11.82;3.08;;;;;;;2.09;91.00;102358.66;5089379;28;20044;-43
2023/02/09 05:57:32;;;;;;;5.63;2.10;;;;;;;2.06;91.22;102353.72;5089074;28;20040;-43
2023/02/09 05:59:59;;;;;;;11.15;2.20;;;;;;;2.04;91.20;102355.06;5071020;28;20074;-43
2023/02/09 06:02:26;;;;;;;7.05;2.58;;;;;;;2.03;91.22;102354.22;5088002;28;20051;-43
2023/02/09 06:04:55;;;;;;;4.32;1.52;;;;;;;2.02;90.86;102349.00;5089186;28;20105;-42
2023/02/09 06:07:22;;;;;;;6.47;2.00;;;;;;;2.00;91.39;102357.44;5089072;28;20040;-42
2023/02/09 06:09:49;;;;;;;5.88;2.85;;;;;;;2.00;90.84;102353.88;5071071;28;20093;-44
2023/02/09 06:12:15;;;;;;;8.68;2.40;;;;;;;1.98;90.95;102364.25;5100766;28;20545;-44
2023/02/09 06:14:42;;;;;;;10.45;2.33;;;;;;;1.96;91.13;102369.13;5089269;28;20509;-44
2023/02/09 06:17:09;;;;;;;4.95;1.98;;;;;;;1.95;90.96;102378.38;5088760;28;20410;-43
2023/02/09 06:19:37;;;;;;;8.20;2.05;;;;;;;1.93;90.70;102372.34;5087299;28;20062;-47
2023/02/09 06:22:04;;;;;;;7.57;2.15;;;;;;;1.91;90.95;102375.31;5075625;28;20509;-42
2023/02/09 06:24:30;;;;;;;10.18;1.83;;;;;;;1.90;91.05;102364.66;5088750;28;20044;-43
2023/02/09 06:26:57;;;;;;;6.78;2.10;;;;;;;1.88;90.73;102373.06;5088714;28;20137;-43
2023/02/09 06:29:24;;;;;;;6.28;1.90;;;;;;;1.85;90.89;102374.41;5087579;28;20515;-44
2023/02/09 06:31:51;;;;;;;5.82;2.40;;;;;;;1.85;90.99;102379.06;5089304;28;20043;-43
2023/02/09 06:34:18;;;;;;;5.35;2.22;;;;;;;1.80;90.73;102382.50;5098491;28;20179;-43
2023/02/09 06:36:45;;;;;;;9.77;2.05;;;;;;;1.79;90.77;102380.88;5088549;28;20134;-42
2023/02/09 06:39:11;;;;;;;10.48;2.60;;;;;;;1.80;90.81;102387.16;5088977;28;20378;-42
2023/02/09 06:41:38;;;;;;;4.75;2.05;;;;;;;1.80;90.56;102387.16;5088730;28;20097;-43
2023/02/09 06:44:05;;;;;;;5.63;1.88;;;;;;;1.78;90.59;102395.59;5070331;28;20052;-43
2023/02/09 06:46:32;;;;;;;4.40;1.90;;;;;;;1.76;90.45;102397.75;5088944;28;20130;-43
2023/02/09 06:48:59;;;;;;;5.32;2.00;;;;;;;1.76;90.84;102400.47;5089279;28;20462;-43
2023/02/09 06:51:26;;;;;;;12.90;2.13;;;;;;;1.77;90.82;102399.38;5088468;28;20088;-43
2023/02/09 06:53:53;;;;;;;9.93;2.35;;;;;;;1.76;90.81;102408.66;5088717;28;20523;-44
2023/02/09 06:56:20;;;;;;;7.32;1.73;;;;;;;1.75;90.75;102404.25;5088295;28;20059;-48
2023/02/09 06:58:47;;;;;;;7.38;2.40;;;;;;;1.75;90.38;102412.47;5080254;28;20048;-47
2023/02/09 07:01:14;;;;;;;7.65;2.03;;;;;;;1.76;90.52;102408.66;5088519;28;20567;-42
2023/02/09 07:03:42;;;;;;;8.77;2.03;;;;;;;1.77;90.33;102418.50;5088299;28;20582;-43
2023/02/09 07:06:15;;;;;;;7.10;2.03;;;;;;;1.78;90.33;102417.44;5088755;28;20043;-42
2023/02/09 07:08:42;;;;;;;9.73;1.77;;;;;;;1.77;90.06;102426.69;5088048;28;20254;-43
2023/02/09 07:11:12;;;;;;;5.63;1.50;;;;;;;1.77;89.92;102429.41;5097377;28;20389;-44
2023/02/09 07:13:39;;;;;;;13.70;2.05;;;;;;;1.77;89.94;102437.59;5090166;28;20047;-43
2023/02/09 07:16:08;;;;;;;3.15;1.40;;;;;;;1.78;90.20;102433.81;5088457;28;20408;-42
2023/02/09 07:18:35;;;;;;;8.27;2.20;;;;;;;1.79;90.18;102435.47;5087892;28;20044;-43
2023/02/09 07:21:07;;;;;;;19.58;1.95;;;;;;;1.80;89.75;102430.84;5088065;28;20066;-45
2023/02/09 07:23:35;;;;;;;7.40;1.10;;;;;;;1.81;89.75;102427.88;5089148;28;20525;-43
2023/02/09 07:26:07;;;;;;;5.00;1.75;;;;;;;1.80;89.96;102415.28;5088021;28;20680;-43
2023/02/09 07:28:36;;;;;;;7.88;2.30;;;;;;;1.80;89.77;102426.19;5088153;28;20445;-44
2023/02/09 07:31:06;;;;;;;9.18;1.58;;;;;;;1.78;89.59;102428.34;5087844;28;20051;-48
2023/02/09 07:33:34;;;;;;;12.55;2.40;;;;;;;1.80;89.46;102425.41;5092669;28;20035;-42
2023/02/09 07:36:05;;;;;;;6.82;1.48;;;;;;;1.79;89.48;102427.28;5093233;28;20036;-43
2023/02/09 07:38:32;;;;;;;14.35;2.72;;;;;;;1.79;89.43;102431.91;5087911;28;20473;-50
2023/02/09 07:41:01;;;;;;;12.40;1.70;;;;;;;1.79;89.20;102434.66;5090820;28;20765;-49
2023/02/09 07:43:28;;;;;;;8.57;1.73;;;;;;;1.79;89.37;102426.47;5091657;28;20437;-43
2023/02/09 07:46:04;;;;;;;8.38;1.83;;;;;;;1.77;89.11;102426.69;5091859;28;20117;-43
2023/02/09 07:48:31;;;;;;;5.30;1.40;;;;;;;1.78;89.44;102428.34;5091845;28;20058;-43
2023/02/09 07:50:59;;;;;;;11.32;2.47;;;;;;;1.78;89.25;102439.28;5091433;28;20176;-46
2023/02/09 07:53:27;;;;;;;7.05;1.70;;;;;;;1.80;88.97;102442.59;5091525;28;20044;-43
2023/02/09 07:55:54;;;;;;;13.93;2.10;;;;;;;1.82;88.75;102456.00;5091585;28;20047;-43
2023/02/09 07:58:21;;;;;;;5.15;1.50;;;;;;;1.84;88.86;102462.88;5094482;28;20461;-43
2023/02/09 08:00:49;;;;;;;9.80;1.52;;;;;;;1.87;88.69;102463.44;5091093;28;20066;-43
2023/02/09 08:03:20;;;;;;;13.88;1.92;;;;;;;1.89;88.52;102464.88;5089263;28;20653;-43
2023/02/09 08:05:55;;;;;;;5.65;1.45;;;;;;;1.91;88.51;102486.47;5091252;28;20460;-45
2023/02/09 08:08:22;;;;;;;7.45;1.70;;;;;;;1.94;88.26;102486.81;5091258;28;20513;-45
2023/02/09 08:10:49;;;;;;;10.43;2.20;;;;;;;1.97;88.23;102485.47;5088606;28;20068;-44
2023/02/09 08:13:16;;;;;;;6.15;2.97;;;;;;;2.00;88.12;102495.91;5083118;28;20493;-43
2023/02/09 08:15:47;;;;;;;11.02;2.15;;;;;;;2.03;88.44;102495.44;5090596;28;20068;-43
2023/02/09 08:18:20;;;;;;;7.65;2.03;;;;;;;2.07;88.33;102502.88;5090893;28;20453;-46
2023/02/09 08:20:50;;;;;;;7.13;2.38;;;;;;;2.11;87.96;102505.97;5091360;28;20409;-43
2023/02/09 08:23:27;;;;;;;7.57;2.13;;;;;;;2.16;88.02;102515.06;5091797;28;20044;-44
2023/02/09 08:25:55;;;;;;;9.35;1.77;;;;;;;2.21;87.67;102514.31;5073506;28;20044;-45
2023/02/09 08:28:22;;;;;;;5.82;1.63;;;;;;;2.29;88.06;102512.03;5090853;28;20043;-43
2023/02/09 08:31:09;;;;;;;6.53;2.65;;;;;;;2.35;87.58;102515.69;5082826;28;20036;-43
2023/02/09 08:33:38;;;;;;;11.98;1.88;;;;;;;2.39;87.70;102519.56;5078203;28;20062;-43
2023/02/09 08:36:06;;;;;;;4.80;1.85;;;;;;;2.46;87.57;102525.72;5098655;28;20048;-45
2023/02/09 08:38:35;;;;;;;11.02;1.92;;;;;;;2.52;87.45;102527.44;5090600;28;20044;-43
2023/02/09 08:41:07;;;;;;;7.63;2.72;;;;;;;2.57;87.50;102529.44;5073290;28;20056;-44
2023/02/09 08:43:34;;;;;;;11.80;2.85;;;;;;;2.64;87.04;102530.94;5090496;28;20067;-45
2023/02/09 08:46:10;;;;;;;8.68;1.48;;;;;;;2.69;86.87;102539.22;5090530;28;20058;-44
2023/02/09 08:48:39;;;;;;;11.02;2.42;;;;;;;2.74;86.75;102539.28;5099424;28;20405;-47
2023/02/09 08:51:07;;;;;;;13.88;1.92;;;;;;;2.74;86.96;102542.03;5094261;28;20109;-43
2023/02/09 08:53:34;;;;;;;9.50;2.25;;;;;;;2.70;86.60;102538.13;5089877;28;20449;-45
2023/02/09 08:56:01;;;;;;;8.43;2.90;;;;;;;2.68;86.52;102553.94;5090561;28;20051;-43
2023/02/09 08:58:29;;;;;;;8.52;1.98;;;;;;;2.66;86.62;102553.38;5083891;28;20058;-44
2023/02/09 09:00:56;;;;;;;12.27;2.15;;;;;;;2.64;86.54;102552.81;5071755;28;20058;-50
2023/02/09 09:03:28;;;;;;;10.10;2.22;;;;;;;2.64;86.38;102550.06;5090234;28;20117;-44
2023/02/09 09:06:00;;;;;;;10.05;1.70;;;;;;;2.65;86.31;102550.91;5073553;28;20044;-43
2023/02/09 09:08:28;;;;;;;8.35;1.95;;;;;;;2.66;86.34;102556.13;5090190;28;20263;-43
2023/02/09 09:10:55;;;;;;;9.90;1.67;;;;;;;2.67;86.27;102562.41;5096721;28;20142;-43
2023/02/09 09:13:23;;;;;;;8.60;1.85;;;;;;;2.67;86.46;102566.00;5094470;28;20044;-50
2023/02/09 09:15:51;;;;;;;8.60;1.77;;;;;;;2.71;86.08;102553.47;5089828;28;20441;-46
2023/02/09 09:18:18;;;;;;;4.57;1.90;;;;;;;2.73;86.25;102562.22;5090080;28;20044;-52
2023/02/09 09:20:44;;;;;;;4.55;2.30;;;;;;;2.77;85.97;102563.41;5088198;28;20042;-51
2023/02/09 09:23:12;;;;;;;14.13;3.55;;;;;;;2.81;86.04;102553.63;5090049;28;20054;-45
2023/02/09 09:25:39;;;;;;;11.25;1.90;;;;;;;2.85;85.68;102565.72;5071797;28;20068;-44
2023/02/09 09:28:07;;;;;;;11.93;2.00;;;;;;;2.89;86.07;102564.13;5089282;28;20048;-44
2023/02/09 09:30:35;;;;;;;8.68;2.42;;;;;;;2.95;85.67;102571.34;5089832;28;20050;-44
2023/02/09 09:33:02;;;;;;;14.43;2.30;;;;;;;2.99;85.52;102564.28;5089389;28;20405;-52
2023/02/09 09:35:30;;;;;;;8.02;2.72;;;;;;;3.06;85.71;102583.28;5098420;28;20409;-44
2023/02/09 09:37:57;;;;;;;12.82;2.63;;;;;;;3.10;85.48;102578.16;5089450;28;20040;-50
2023/02/09 09:40:28;;;;;;;11.00;2.05;;;;;;;3.15;85.14;102587.25;5090123;28;20405;-43
2023/02/09 09:42:59;;;;;;;12.93;1.70;;;;;;;3.21;85.41;102585.41;5089559;28;20091;-45
2023/02/09 09:45:28;;;;;;;10.38;2.17;;;;;;;3.25;85.08;102603.00;5089491;28;20089;-44
2023/02/09 09:47:56;;;;;;;14.43;2.28;;;;;;;3.30;84.98;102603.06;5076465;28;20060;-44
2023/02/09 09:50:37;;;;;;;11.50;2.28;;;;;;;3.36;84.79;102604.81;5089205;28;20486;-43
2023/02/09 09:53:31;;;;;;;10.23;2.90;;;;;;;3.43;84.85;102619.13;5089479;28;20127;-44
2023/02/09 09:56:06;;;;;;;12.45;4.13;;;;;;;3.51;84.53;102613.22;5081781;28;20059;-48
2023/02/09 09:58:37;;;;;;;9.70;2.17;;;;;;;3.57;84.27;102614.97;5089137;28;20445;-43
2023/02/09 10:01:05;;;;;;;7.00;2.10;;;;;;;3.65;84.67;102600.84;5088775;28;20056;-42
2023/02/09 10:03:32;;;;;;;6.65;2.22;;;;;;;3.73;84.51;102602.31;5089072;28;20166;-44
2023/02/09 10:06:10;;;;;;;10.07;2.55;;;;;;;3.79;84.32;102593.03;5088809;28;20102;-44
2023/02/09 10:08:54;;;;;;;9.85;3.78;;;;;;;3.84;84.23;102596.69;5088829;28;20054;-43
2023/02/09 10:11:31;;;;;;;8.45;1.80;;;;;;;3.92;84.01;102603.66;5099407;28;20408;-45
2023/02/09 10:13:58;;;;;;;5.45;1.60;;;;;;;4.00;84.00;102598.53;5081903;28;20044;-47
2023/02/09 10:16:27;;;;;;;8.60;2.05;;;;;;;4.08;83.95;102598.06;5070954;28;20055;-43
2023/02/09 10:19:00;;;;;;;16.55;2.65;;;;;;;4.21;83.93;102596.84;5088865;28;20066;-43
2023/02/09 10:21:30;;;;;;;12.50;2.13;;;;;;;4.32;83.42;102609.56;5071036;28;20056;-43
2023/02/09 10:23:59;;;;;;;10.55;3.28;;;;;;;4.43;83.72;102618.72;5088597;28;20397;-44
2023/02/09 10:26:31;;;;;;;8.88;1.48;;;;;;;4.49;83.52;102617.69;5088772;28;20048;-43
2023/02/09 10:29:06;;;;;;;;;;;;;;;4.52;83.00;102626.25;5089160;28;20044;-46
2023/02/09 10:31:39;;;;;;;13.05;2.03;;;;;;;4.56;83.29;102629.28;5089044;28;19923;-44
2023/02/09 10:34:14;;;;;;;8.05;1.35;;;;;;;4.62;83.32;102625.50;5098070;28;20342;-50
2023/02/09 10:36:50;;;;;;;11.80;2.72;;;;;;;4.67;82.58;102622.81;5076311;28;20040;-51
2023/02/09 10:39:29;;;;;;;8.80;1.67;;;;;;;4.72;82.96;102628.34;5089035;28;20160;-45
2023/02/09 10:42:13;;;;;;;5.53;1.88;;;;;;;4.77;82.59;102625.66;5088911;28;20059;-44
2023/02/09 10:44:47;;;;;;;6.57;1.90;;;;;;;4.76;82.24;102632.25;5088569;28;20046;-45
2023/02/09 10:47:22;;;;;;;9.15;1.60;;;;;;;4.79;82.37;102631.72;5088499;28;20143;-43
2023/02/09 10:49:53;;;;;;;26.83;2.85;;;;;;;4.81;82.30;102624.88;5070532;28;20075;-44
2023/02/09 10:52:22;;;;;;;7.22;1.73;;;;;;;4.82;81.98;102626.53;5088175;28;20528;-45
2023/02/09 10:54:55;;;;;;;17.35;4.78;;;;;;;4.85;81.88;102633.41;5050070;28;20044;-50
2023/02/09 10:57:28;;;;;;;9.80;1.65;;;;;;;4.88;81.72;102635.63;5074177;28;20052;-43
2023/02/09 10:59:59;;;;;;;6.10;1.85;;;;;;;4.90;81.40;102630.69;5088674;28;20089;-50
2023/02/09 11:02:34;;;;;;;8.93;2.08;;;;;;;4.95;81.14;102629.94;5087836;28;20404;-44
2023/02/09 11:05:03;;;;;;;8.60;2.53;;;;;;;4.98;81.38;102635.72;5088984;28;20127;-49
2023/02/09 11:07:39;;;;;;;8.52;1.63;;;;;;;5.03;81.33;102637.69;5088150;28;20032;-44
2023/02/09 11:10:11;;;;;;;6.20;2.15;;;;;;;5.06;81.20;102640.72;5088160;28;20043;-44
2023/02/09 11:12:38;;;;;;;9.55;2.22;;;;;;;5.13;80.87;102637.78;5099270;28;20038;-48
2023/02/09 11:15:12;;;;;;;11.75;2.60;;;;;;;5.19;80.85;102653.19;5089336;28;20059;-44
2023/02/09 11:17:49;;;;;;;11.30;2.15;;;;;;;5.24;80.90;102651.28;5092330;28;20105;-44
2023/02/09 11:20:48;;;;;;;11.95;2.33;;;;;;;5.30;80.46;102649.41;5091944;28;20040;-44
2023/02/09 11:23:37;;;;;;;7.68;2.10;;;;;;;5.34;80.35;102651.38;5061975;28;20062;-44
2023/02/09 11:26:16;;;;;;;6.20;1.67;;;;;;;5.38;80.20;102644.25;5092317;28;20055;-44
2023/02/09 11:28:46;;;;;;;13.43;2.80;;;;;;;5.42;80.05;102647.31;5080589;28;20036;-46
2023/02/09 11:31:25;;;;;;;12.35;2.30;;;;;;;5.47;80.11;102645.44;5092167;28;20048;-52
2023/02/09 11:33:58;;;;;;;5.80;1.58;;;;;;;5.50;79.76;102649.56;5099349;28;20058;-44
2023/02/09 11:36:37;;;;;;;10.30;2.22;;;;;;;5.52;79.58;102642.72;5093527;28;20074;-44
2023/02/09 11:39:18;;;;;;;10.40;2.22;;;;;;;5.57;79.61;102644.66;5092288;28;20138;-44
2023/02/09 11:44:55;;;;;;;8.38;1.88;;;;;;;5.64;79.29;102622.47;5091374;28;20085;-44
2023/02/09 11:47:32;;;;;;;8.48;1.90;;;;;;;5.65;79.32;102619.44;5091580;28;20143;-46
2023/02/09 11:50:03;;;;;;;13.00;2.03;;;;;;;5.69;79.10;102625.22;5091702;28;20138;-45
2023/02/09 11:52:37;;;;;;;10.20;1.83;;;;;;;5.70;78.85;102626.88;5091630;28;20052;-45
2023/02/09 11:55:37;;;;;;;11.93;2.53;;;;;;;5.71;78.60;102614.78;5091911;28;20050;-44